createdAt,value
2023-05-13T00:01:27.318Z,13.20
2023-05-13T00:03:55.073Z,13.00
2023-05-13T00:06:22.746Z,13.10
2023-05-13T00:08:50.293Z,13.10
2023-05-13T00:11:17.964Z,12.90
2023-05-13T00:13:45.457Z,12.60
2023-05-13T00:16:13.279Z,12.60
2023-05-13T00:18:40.942Z,12.70
2023-05-13T00:21:08.635Z,12.60
2023-05-13T00:23:36.363Z,12.70
2023-05-13T00:26:04.285Z,12.70
2023-05-13T00:28:31.909Z,12.70
2023-05-13T00:30:59.419Z,12.70
2023-05-13T00:33:26.956Z,12.70
2023-05-13T00:35:54.459Z,12.70
2023-05-13T00:38:22.219Z,12.70
2023-05-13T00:40:50.588Z,12.80
2023-05-13T00:43:18.222Z,12.80
2023-05-13T00:45:45.854Z,12.80
2023-05-13T00:48:13.750Z,12.80
2023-05-13T00:50:44.925Z,12.80
2023-05-13T00:53:13.411Z,12.80
2023-05-13T00:55:45.061Z,12.70
2023-05-13T00:58:13.424Z,12.80
2023-05-13T01:01:15.195Z,12.90
2023-05-13T01:04:10.140Z,12.90
2023-05-13T01:07:09.084Z,12.80
2023-05-13T01:09:53.494Z,12.90
2023-05-13T01:12:26.850Z,12.90
2023-05-13T01:14:59.966Z,12.80
2023-05-13T01:17:52.939Z,12.80
2023-05-13T01:20:24.935Z,12.70
2023-05-13T01:22:52.474Z,12.70
2023-05-13T01:25:19.999Z,12.60
2023-05-13T01:27:47.640Z,12.60
2023-05-13T01:30:15.456Z,12.50
2023-05-13T01:32:43.739Z,12.50
2023-05-13T01:35:12.631Z,12.50
2023-05-13T01:37:41.822Z,12.50
2023-05-13T01:40:24.067Z,12.40
2023-05-13T01:42:58.380Z,12.40
2023-05-13T01:45:29.395Z,12.40
2023-05-13T01:47:56.953Z,12.30
2023-05-13T01:50:24.809Z,12.20
2023-05-13T01:52:52.725Z,12.30
2023-05-13T01:55:20.463Z,12.30
2023-05-13T01:57:48.578Z,12.30
2023-05-13T02:00:16.484Z,12.20
2023-05-13T02:02:44.871Z,12.20
2023-05-13T02:05:12.562Z,12.40
2023-05-13T02:07:40.037Z,12.40
2023-05-13T02:10:07.933Z,12.10
2023-05-13T02:12:35.533Z,12.10
2023-05-13T02:15:03.181Z,12.30
2023-05-13T02:17:30.708Z,12.30
2023-05-13T02:19:58.264Z,12.40
2023-05-13T02:22:25.790Z,12.50
2023-05-13T02:24:53.496Z,12.50
2023-05-13T02:27:21.080Z,12.60
2023-05-13T02:29:48.725Z,12.70
2023-05-13T02:32:16.462Z,12.70
2023-05-13T02:34:44.202Z,12.70
2023-05-13T02:37:12.068Z,12.50
2023-05-13T02:39:39.577Z,12.40
2023-05-13T02:42:07.420Z,12.40
2023-05-13T02:44:35.660Z,12.50
2023-05-13T02:47:03.485Z,12.40
2023-05-13T02:49:31.107Z,12.50
2023-05-13T02:51:58.812Z,12.50
2023-05-13T02:54:26.544Z,12.50
2023-05-13T02:56:54.083Z,12.60
2023-05-13T02:59:21.588Z,12.50
2023-05-13T03:01:49.579Z,12.40
2023-05-13T03:04:17.331Z,12.30
2023-05-13T03:06:45.145Z,12.40
2023-05-13T03:09:12.708Z,12.40
2023-05-13T03:11:40.265Z,12.40
2023-05-13T03:14:07.982Z,12.50
2023-05-13T03:16:35.574Z,12.40
2023-05-13T03:19:03.450Z,12.40
2023-05-13T03:21:31.198Z,12.40
2023-05-13T03:23:58.824Z,12.30
2023-05-13T03:26:26.998Z,12.30
2023-05-13T03:28:54.538Z,12.20
2023-05-13T03:31:22.284Z,12.20
2023-05-13T03:33:50.187Z,12.10
2023-05-13T03:36:18.026Z,12.00
2023-05-13T03:38:45.553Z,12.00
2023-05-13T03:41:13.179Z,12.00
2023-05-13T03:43:40.887Z,11.90
2023-05-13T03:46:08.472Z,12.00
2023-05-13T03:48:36.073Z,11.90
2023-05-13T03:51:04.006Z,11.90
2023-05-13T03:53:31.525Z,11.90
2023-05-13T03:55:59.103Z,11.90
2023-05-13T03:58:26.612Z,11.80
2023-05-13T04:00:54.129Z,11.80
2023-05-13T04:03:21.869Z,12.00
2023-05-13T04:05:49.832Z,11.90
2023-05-13T04:08:17.524Z,11.80
2023-05-13T04:10:46.244Z,11.90
2023-05-13T04:13:13.703Z,11.80
2023-05-13T04:15:42.282Z,11.90
2023-05-13T04:18:11.425Z,11.70
2023-05-13T04:20:39.803Z,11.50
2023-05-13T04:23:07.707Z,11.50
2023-05-13T04:25:37.511Z,11.60
2023-05-13T04:28:05.581Z,11.70
2023-05-13T04:30:33.063Z,11.80
2023-05-13T04:33:00.653Z,11.90
2023-05-13T04:35:28.185Z,12.00
2023-05-13T04:37:55.686Z,12.10
2023-05-13T04:40:23.514Z,12.10
2023-05-13T04:42:55.045Z,12.10
2023-05-13T04:45:24.160Z,12.30
2023-05-13T04:47:51.834Z,12.40
2023-05-13T04:50:19.538Z,12.60
2023-05-13T04:52:47.822Z,12.90
2023-05-13T04:55:15.534Z,13.50
2023-05-13T04:57:42.985Z,14.40
2023-05-13T05:00:12.855Z,15.30
2023-05-13T05:02:40.476Z,16.30
2023-05-13T05:05:09.152Z,17.40
2023-05-13T05:07:40.688Z,18.40
2023-05-13T05:10:09.117Z,19.60
2023-05-13T05:12:38.247Z,20.60
2023-05-13T05:15:06.693Z,21.90
2023-05-13T05:17:35.567Z,22.80
2023-05-13T05:20:03.459Z,23.90
2023-05-13T05:22:31.063Z,24.40
2023-05-13T05:24:58.545Z,24.70
2023-05-13T05:27:26.077Z,25.20
2023-05-13T05:29:53.622Z,25.10
2023-05-13T05:32:21.274Z,25.00
2023-05-13T05:34:48.809Z,25.20
2023-05-13T05:37:16.569Z,25.70
2023-05-13T05:39:44.015Z,25.80
2023-05-13T05:42:12.725Z,25.80
2023-05-13T05:44:40.324Z,26.00
2023-05-13T05:47:07.812Z,25.90
2023-05-13T05:49:35.267Z,26.10
2023-05-13T05:52:02.774Z,26.30
2023-05-13T05:54:30.795Z,26.10
2023-05-13T05:56:58.257Z,26.60
2023-05-13T05:59:25.895Z,26.90
2023-05-13T06:01:53.544Z,27.40
2023-05-13T06:04:21.084Z,27.80
2023-05-13T06:06:48.723Z,28.10
2023-05-13T06:09:16.415Z,28.00
2023-05-13T06:11:43.849Z,28.50
2023-05-13T06:14:11.381Z,28.90
2023-05-13T06:16:38.868Z,29.20
2023-05-13T06:19:06.374Z,28.30
2023-05-13T06:21:34.868Z,28.70
2023-05-13T06:24:03.309Z,28.50
2023-05-13T06:26:32.016Z,28.10
2023-05-13T06:28:59.557Z,28.20
2023-05-13T06:31:27.271Z,28.50
2023-05-13T06:33:54.806Z,28.60
2023-05-13T06:36:22.412Z,29.30
2023-05-13T06:38:49.931Z,29.20
2023-05-13T06:41:17.400Z,29.70
2023-05-13T06:43:46.362Z,30.20
2023-05-13T06:46:13.816Z,29.40
2023-05-13T06:48:41.534Z,29.70
2023-05-13T06:51:09.209Z,29.80
2023-05-13T06:53:36.737Z,30.00
2023-05-13T06:56:04.306Z,30.30
2023-05-13T06:58:31.818Z,29.80
2023-05-13T07:00:59.305Z,29.80
2023-05-13T07:03:26.885Z,30.60
2023-05-13T07:05:54.530Z,31.00
2023-05-13T07:08:22.283Z,31.40
2023-05-13T07:10:49.750Z,31.60
2023-05-13T07:13:19.404Z,31.60
2023-05-13T07:15:47.497Z,30.90
2023-05-13T07:18:15.240Z,31.30
2023-05-13T07:20:42.851Z,31.80
2023-05-13T07:23:10.309Z,32.70
2023-05-13T07:25:37.788Z,32.20
2023-05-13T07:28:05.308Z,32.10
2023-05-13T07:30:32.823Z,32.20
2023-05-13T07:33:00.440Z,31.50
2023-05-13T07:35:28.162Z,31.80
2023-05-13T07:37:55.697Z,30.90
2023-05-13T07:40:23.361Z,30.20
2023-05-13T07:42:51.094Z,30.00
2023-05-13T07:45:18.693Z,30.30
2023-05-13T07:47:46.190Z,29.50
2023-05-13T07:50:13.874Z,28.60
2023-05-13T07:52:42.266Z,28.80
2023-05-13T07:55:11.006Z,28.40
2023-05-13T07:57:38.639Z,28.70
2023-05-13T08:00:06.794Z,28.50
2023-05-13T08:02:35.417Z,27.70
2023-05-13T08:05:03.345Z,27.60
2023-05-13T08:07:30.975Z,27.80
2023-05-13T08:09:58.486Z,28.70
2023-05-13T08:12:26.037Z,28.40
2023-05-13T08:14:53.593Z,29.60
2023-05-13T08:17:21.266Z,31.20
2023-05-13T08:19:48.829Z,31.10
2023-05-13T08:22:16.318Z,30.80
2023-05-13T08:24:44.198Z,31.70
2023-05-13T08:27:13.028Z,32.00
2023-05-13T08:29:40.543Z,31.90
2023-05-13T08:32:08.068Z,32.30
2023-05-13T08:34:35.653Z,31.20
2023-05-13T08:37:03.209Z,30.00
2023-05-13T08:39:30.694Z,30.50
2023-05-13T08:42:00.272Z,31.20
2023-05-13T08:44:31.845Z,30.60
2023-05-13T08:47:23.062Z,30.50
2023-05-13T08:49:51.452Z,30.10
2023-05-13T08:52:23.118Z,29.40
2023-05-13T08:54:50.645Z,30.30
2023-05-13T08:57:18.126Z,30.50
2023-05-13T08:59:45.872Z,31.60
2023-05-13T09:02:13.466Z,33.00
2023-05-13T09:04:43.443Z,32.40
2023-05-13T09:07:12.042Z,31.50
2023-05-13T09:09:39.936Z,31.60
2023-05-13T09:12:08.249Z,31.70
2023-05-13T09:14:37.519Z,32.00
2023-05-13T09:17:05.673Z,31.40
2023-05-13T09:19:33.238Z,32.20
2023-05-13T09:22:00.815Z,31.70
2023-05-13T09:24:28.513Z,30.30
2023-05-13T09:26:56.559Z,30.90
2023-05-13T09:29:30.532Z,31.10
2023-05-13T09:32:00.268Z,30.00
2023-05-13T09:34:32.871Z,29.60
2023-05-13T09:37:06.068Z,29.60
2023-05-13T09:39:43.749Z,30.50
2023-05-13T09:42:18.190Z,30.90
2023-05-13T09:44:46.606Z,30.00
2023-05-13T09:47:15.117Z,30.30
2023-05-13T09:49:45.271Z,31.00
2023-05-13T09:52:17.138Z,30.90
2023-05-13T09:54:44.981Z,31.00
2023-05-13T09:57:13.611Z,29.90
2023-05-13T09:59:41.680Z,30.30
2023-05-13T10:02:09.371Z,30.40
2023-05-13T10:04:37.215Z,31.60
2023-05-13T10:07:05.271Z,32.40
2023-05-13T10:09:36.636Z,32.50
2023-05-13T10:12:08.127Z,33.40
2023-05-13T10:14:38.257Z,33.60
2023-05-13T10:17:06.948Z,32.50
2023-05-13T10:19:35.057Z,31.90
2023-05-13T10:22:03.089Z,31.40
2023-05-13T10:24:31.739Z,30.60
2023-05-13T10:27:02.084Z,29.70
2023-05-13T10:29:29.741Z,30.40
2023-05-13T10:31:58.977Z,31.20
2023-05-13T10:34:27.609Z,31.90
2023-05-13T10:37:40.937Z,32.30
2023-05-13T10:40:11.610Z,31.30
2023-05-13T10:42:46.275Z,31.00
2023-05-13T10:45:17.268Z,31.70
2023-05-13T10:47:49.986Z,32.40
2023-05-13T10:50:26.896Z,32.90
2023-05-13T10:52:59.188Z,32.20
2023-05-13T10:55:28.500Z,32.30
2023-05-13T10:58:07.890Z,31.90
2023-05-13T11:00:36.424Z,32.10
2023-05-13T11:03:19.930Z,32.20
2023-05-13T11:06:00.315Z,32.00
2023-05-13T11:08:56.094Z,32.50
2023-05-13T11:11:23.916Z,31.60
2023-05-13T11:14:13.688Z,30.10
2023-05-13T11:16:47.078Z,29.50
2023-05-13T11:19:23.141Z,29.80
2023-05-13T11:21:55.577Z,29.90
2023-05-13T11:24:24.092Z,30.00
2023-05-13T11:26:51.636Z,30.40
2023-05-13T11:32:56.769Z,29.80
2023-05-13T11:35:28.578Z,30.20
2023-05-13T11:37:59.156Z,30.20
2023-05-13T11:40:33.069Z,29.10
2023-05-13T11:43:01.555Z,29.40
2023-05-13T11:45:30.402Z,29.00
2023-05-13T11:47:58.373Z,28.60
2023-05-13T11:50:30.942Z,27.70
2023-05-13T11:53:00.686Z,26.90
2023-05-13T11:55:30.359Z,26.10
2023-05-13T11:57:58.894Z,25.80
2023-05-13T12:00:33.840Z,25.80
2023-05-13T12:03:12.000Z,25.70
2023-05-13T12:05:40.435Z,25.70
2023-05-13T12:08:10.174Z,25.40
2023-05-13T12:10:43.943Z,25.10
2023-05-13T12:13:12.534Z,25.10
2023-05-13T12:15:41.492Z,25.00
2023-05-13T12:18:09.111Z,24.60
2023-05-13T12:20:37.824Z,25.00
2023-05-13T12:23:06.317Z,24.50
2023-05-13T12:25:36.826Z,24.70
2023-05-13T12:28:18.873Z,24.60
2023-05-13T12:30:53.666Z,24.40
2023-05-13T12:33:26.911Z,24.50
2023-05-13T12:36:15.758Z,24.90
2023-05-13T12:39:00.136Z,25.50
2023-05-13T12:41:31.261Z,25.40
2023-05-13T12:44:00.510Z,24.80
2023-05-13T12:46:28.953Z,25.00
2023-05-13T12:48:58.252Z,24.90
2023-05-13T12:51:26.097Z,24.40
2023-05-13T12:53:54.800Z,24.70
2023-05-13T12:56:24.269Z,25.00
2023-05-13T12:58:54.392Z,24.80
2023-05-13T13:01:22.578Z,24.80
2023-05-13T13:03:51.046Z,24.70
2023-05-13T13:06:18.869Z,24.70
2023-05-13T13:08:46.525Z,24.70
2023-05-13T13:11:19.066Z,24.40
2023-05-13T13:13:48.242Z,24.60
2023-05-13T13:16:15.951Z,24.60
2023-05-13T13:18:43.756Z,24.60
2023-05-13T13:21:11.512Z,24.50
2023-05-13T13:23:39.151Z,24.40
2023-05-13T13:26:06.751Z,24.60
2023-05-13T13:28:34.320Z,24.50
2023-05-13T13:31:02.058Z,24.50
2023-05-13T13:33:29.720Z,24.50
2023-05-13T13:35:57.251Z,24.50
2023-05-13T13:38:24.821Z,24.60
2023-05-13T13:40:52.892Z,24.70
2023-05-13T13:43:20.627Z,25.00
2023-05-13T13:45:48.218Z,24.80
2023-05-13T13:48:15.966Z,24.70
2023-05-13T13:50:45.373Z,24.50
2023-05-13T13:53:14.232Z,24.60
2023-05-13T13:55:41.772Z,24.90
2023-05-13T13:58:09.233Z,24.80
2023-05-13T14:00:36.805Z,24.30
2023-05-13T14:03:04.546Z,24.30
2023-05-13T14:05:32.475Z,24.60
2023-05-13T14:08:00.104Z,24.70
2023-05-13T14:10:27.703Z,24.40
2023-05-13T14:12:55.257Z,24.40
2023-05-13T14:15:24.377Z,24.50
2023-05-13T14:17:52.070Z,24.20
2023-05-13T14:20:20.892Z,24.00
2023-05-13T14:22:48.702Z,23.90
2023-05-13T14:25:16.624Z,24.20
2023-05-13T14:27:44.075Z,24.50
2023-05-13T14:30:11.883Z,24.50
2023-05-13T14:32:42.722Z,24.60
2023-05-13T14:35:10.500Z,24.60
2023-05-13T14:37:38.097Z,24.90
2023-05-13T14:40:06.271Z,24.50
2023-05-13T14:42:33.950Z,24.30
2023-05-13T14:45:01.638Z,24.20
2023-05-13T14:47:29.280Z,24.30
2023-05-13T14:49:56.989Z,24.50
2023-05-13T14:52:24.507Z,24.40
2023-05-13T14:54:52.406Z,24.10
2023-05-13T14:57:20.107Z,24.10
2023-05-13T14:59:47.627Z,24.00
2023-05-13T15:02:17.506Z,24.00
2023-05-13T15:04:45.227Z,24.00
2023-05-13T15:07:12.744Z,24.20
2023-05-13T15:09:40.283Z,24.20
2023-05-13T15:12:08.369Z,24.20
2023-05-13T15:14:35.836Z,24.00
2023-05-13T15:17:03.648Z,24.20
2023-05-13T15:19:31.708Z,24.40
2023-05-13T15:21:59.190Z,24.50
2023-05-13T15:24:26.726Z,24.50
2023-05-13T15:26:54.193Z,24.70
2023-05-13T15:29:21.688Z,24.90
2023-05-13T15:31:52.218Z,25.00
2023-05-13T15:34:19.690Z,24.80
2023-05-13T15:36:47.177Z,24.40
2023-05-13T15:39:14.674Z,24.00
2023-05-13T15:41:42.383Z,23.60
2023-05-13T15:44:10.164Z,23.10
2023-05-13T15:46:37.952Z,22.80
2023-05-13T15:49:06.683Z,22.50
2023-05-13T15:51:34.153Z,22.60
2023-05-13T15:54:01.765Z,22.70
2023-05-13T15:56:29.419Z,22.70
2023-05-13T15:58:56.986Z,22.70
2023-05-13T16:01:24.507Z,22.80
2023-05-13T16:03:52.195Z,22.90
2023-05-13T16:06:19.697Z,22.90
2023-05-13T16:08:48.596Z,22.90
2023-05-13T16:11:16.121Z,23.00
2023-05-13T16:13:44.689Z,23.00
2023-05-13T16:16:12.312Z,23.00
2023-05-13T16:18:39.833Z,23.00
2023-05-13T16:21:07.320Z,23.10
2023-05-13T16:23:34.978Z,23.10
2023-05-13T16:26:02.769Z,23.10
2023-05-13T16:28:30.333Z,23.10
2023-05-13T16:30:58.715Z,23.20
2023-05-13T16:33:26.431Z,23.30
2023-05-13T16:35:53.890Z,23.30
2023-05-13T16:38:21.460Z,23.30
2023-05-13T16:40:49.209Z,23.30
2023-05-13T16:43:16.730Z,23.50
2023-05-13T16:45:44.457Z,23.80
2023-05-13T16:48:12.758Z,23.80
2023-05-13T16:50:40.339Z,23.80
2023-05-13T16:53:07.886Z,23.80
2023-05-13T16:55:35.811Z,23.70
2023-05-13T16:58:03.296Z,23.50
2023-05-13T17:00:30.927Z,23.20
2023-05-13T17:02:58.522Z,23.00
2023-05-13T17:05:26.335Z,22.40
2023-05-13T17:07:54.151Z,21.60
2023-05-13T17:10:22.056Z,21.20
2023-05-13T17:12:49.872Z,20.90
2023-05-13T17:15:17.456Z,20.80
2023-05-13T17:17:45.806Z,20.80
2023-05-13T17:20:13.489Z,20.90
2023-05-13T17:22:45.591Z,20.90
2023-05-13T17:25:14.106Z,20.80
2023-05-13T17:27:41.830Z,20.80
2023-05-13T17:30:09.911Z,20.60
2023-05-13T17:32:37.455Z,20.70
2023-05-13T17:35:05.442Z,20.80
2023-05-13T17:37:33.084Z,21.10
2023-05-13T17:40:02.598Z,20.60
2023-05-13T17:42:31.516Z,20.30
2023-05-13T17:44:59.366Z,20.30
2023-05-13T17:47:26.916Z,20.40
2023-05-13T17:49:54.459Z,20.70
2023-05-13T17:52:22.118Z,21.00
2023-05-13T17:54:49.585Z,20.80
2023-05-13T17:57:17.605Z,20.80
2023-05-13T17:59:45.138Z,20.90
2023-05-13T18:02:12.780Z,21.10
2023-05-13T18:04:41.198Z,21.20
2023-05-13T18:07:09.128Z,21.20
2023-05-13T18:09:36.754Z,21.20
2023-05-13T18:12:04.531Z,21.10
2023-05-13T18:14:33.451Z,21.00
2023-05-13T18:17:01.058Z,20.90
2023-05-13T18:19:28.560Z,20.80
2023-05-13T18:21:56.153Z,20.80
2023-05-13T18:24:23.630Z,20.90
2023-05-13T18:26:51.256Z,20.80
2023-05-13T18:29:18.863Z,20.80
2023-05-13T18:31:46.377Z,20.80
2023-05-13T18:34:13.890Z,20.70
2023-05-13T18:36:41.469Z,20.60
2023-05-13T18:39:10.039Z,20.60
2023-05-13T18:41:37.575Z,20.40
2023-05-13T18:44:05.165Z,20.30
2023-05-13T18:46:32.841Z,20.30
2023-05-13T18:49:00.753Z,20.40
2023-05-13T18:51:28.177Z,20.50
2023-05-13T18:53:56.108Z,20.70
2023-05-13T18:56:23.886Z,20.60
2023-05-13T18:58:51.552Z,20.60
2023-05-13T19:01:19.077Z,20.60
2023-05-13T19:03:47.146Z,20.60
2023-05-13T19:06:15.698Z,20.60
2023-05-13T19:08:43.191Z,20.60
2023-05-13T19:11:10.716Z,20.40
2023-05-13T19:13:46.823Z,20.30
2023-05-13T19:16:15.524Z,20.20
2023-05-13T19:18:43.242Z,19.90
2023-05-13T19:21:11.078Z,19.30
2023-05-13T19:23:38.583Z,19.10
2023-05-13T19:26:06.241Z,19.30
2023-05-13T19:28:34.550Z,19.30
2023-05-13T19:31:04.406Z,19.30
2023-05-13T19:33:32.402Z,19.20
2023-05-13T19:35:59.938Z,19.10
2023-05-13T19:38:27.658Z,19.00
2023-05-13T19:40:55.149Z,19.10
2023-05-13T19:43:22.748Z,19.10
2023-05-13T19:45:50.536Z,18.80
2023-05-13T19:48:18.010Z,18.70
2023-05-13T19:50:45.511Z,18.20
2023-05-13T19:53:13.733Z,17.80
2023-05-13T19:55:41.400Z,17.70
2023-05-13T19:58:08.953Z,17.60
2023-05-13T20:00:36.592Z,17.60
2023-05-13T20:03:04.291Z,17.90
2023-05-13T20:05:31.953Z,18.20
2023-05-13T20:07:59.758Z,18.10
2023-05-13T20:10:27.277Z,18.00
2023-05-13T20:12:54.734Z,17.90
2023-05-13T20:15:22.278Z,17.80
2023-05-13T20:17:49.921Z,17.70
2023-05-13T20:20:17.573Z,17.50
2023-05-13T20:22:45.099Z,17.40
2023-05-13T20:25:12.779Z,17.20
2023-05-13T20:27:40.289Z,17.00
2023-05-13T20:30:08.731Z,17.00
2023-05-13T20:32:36.461Z,16.80
2023-05-13T20:35:04.185Z,16.70
2023-05-13T20:37:31.825Z,16.60
2023-05-13T20:39:59.274Z,16.40
2023-05-13T20:42:27.427Z,16.40
2023-05-13T20:44:54.943Z,16.20
2023-05-13T20:47:22.410Z,16.30
2023-05-13T20:49:49.931Z,16.10
2023-05-13T20:52:17.639Z,15.90
2023-05-13T20:54:45.190Z,15.70
2023-05-13T20:57:12.740Z,15.70
2023-05-13T20:59:40.417Z,15.40
2023-05-13T21:02:07.913Z,15.20
2023-05-13T21:04:35.432Z,15.10
2023-05-13T21:07:04.820Z,15.20
2023-05-13T21:09:32.425Z,15.20
2023-05-13T21:11:59.964Z,15.20
2023-05-13T21:14:27.499Z,15.00
2023-05-13T21:16:55.500Z,14.90
2023-05-13T21:19:24.580Z,14.90
2023-05-13T21:21:52.160Z,14.80
2023-05-13T21:24:19.996Z,14.90
2023-05-13T21:26:49.231Z,14.80
2023-05-13T21:29:18.623Z,14.60
2023-05-13T21:31:47.659Z,14.70
2023-05-13T21:34:15.340Z,14.80
2023-05-13T21:36:42.872Z,14.60
2023-05-13T21:39:11.240Z,14.60
2023-05-13T21:41:40.119Z,14.80
2023-05-13T21:44:07.812Z,14.80
2023-05-13T21:46:35.268Z,14.90
2023-05-13T21:49:03.044Z,14.80
2023-05-13T21:51:32.731Z,14.80
2023-05-13T21:54:00.518Z,14.80
2023-05-13T21:56:27.972Z,14.70
2023-05-13T21:58:55.557Z,14.60
2023-05-13T22:01:23.177Z,14.50
2023-05-13T22:03:50.785Z,14.40
2023-05-13T22:06:18.329Z,14.40
2023-05-13T22:08:45.981Z,14.40
2023-05-13T22:11:13.414Z,14.40
2023-05-13T22:13:41.602Z,14.40
2023-05-13T22:16:09.304Z,14.40
2023-05-13T22:18:36.988Z,14.40
2023-05-13T22:21:05.901Z,14.40
2023-05-13T22:23:33.832Z,14.40
2023-05-13T22:26:01.348Z,14.30
2023-05-13T22:28:28.882Z,14.40
2023-05-13T22:30:57.065Z,14.40
2023-05-13T22:33:24.536Z,14.50
2023-05-13T22:35:52.167Z,14.30
2023-05-13T22:38:19.647Z,14.10
2023-05-13T22:40:47.110Z,14.00
2023-05-13T22:43:14.610Z,13.90
2023-05-13T22:45:42.623Z,13.90
2023-05-13T22:48:10.505Z,14.00
2023-05-13T22:50:38.478Z,14.10
2023-05-13T22:53:06.205Z,14.20
2023-05-13T22:55:33.705Z,14.20
2023-05-13T22:58:01.466Z,14.30
2023-05-13T23:00:28.987Z,14.20
2023-05-13T23:02:57.534Z,14.20
2023-05-13T23:05:25.151Z,14.20
2023-05-13T23:07:52.694Z,14.10
2023-05-13T23:10:20.291Z,14.10
2023-05-13T23:12:47.817Z,14.30
2023-05-13T23:15:16.305Z,14.50
2023-05-13T23:17:43.968Z,14.50
2023-05-13T23:20:11.880Z,14.60
2023-05-13T23:22:39.422Z,14.70
2023-05-13T23:25:07.693Z,14.70
2023-05-13T23:27:35.856Z,14.50
2023-05-13T23:30:03.606Z,14.50
2023-05-13T23:32:31.183Z,14.50
2023-05-13T23:34:58.871Z,14.20
2023-05-13T23:37:26.381Z,14.10
2023-05-13T23:39:53.859Z,13.90
2023-05-13T23:42:22.058Z,14.00
2023-05-13T23:44:50.047Z,14.00
2023-05-13T23:47:17.573Z,14.00
2023-05-13T23:49:45.248Z,13.90
2023-05-13T23:52:12.864Z,14.00
2023-05-13T23:54:40.374Z,14.10
2023-05-13T23:57:07.908Z,14.20
2023-05-13T23:59:35.664Z,14.30
